Time;durP1;ratioP1;P1;durP2;ratioP2;P2;SDS_P1;SDS_P2;PMS_P1;PMS_P2;Temp;Humidity;BMP_temperature;BMP_pressure;BME280_temperature;BME280_humidity;BME280_pressure;Samples;Min_cycle;Max_cycle;Signal;HPM_P1;HPM_P2
2023/01/21 00:01:06;;;;;;;1.88;0.60;;;;;;;;;;4956590;28;20046;-66
2023/01/21 00:03:33;;;;;;;4.72;0.85;;;;;;;;;;4958421;28;20249;-66
2023/01/21 00:06:00;;;;;;;4.72;0.90;;;;;;;;;;4968813;28;20092;-66
2023/01/21 00:08:27;;;;;;;5.07;0.63;;;;;;;;;;4952307;28;20141;-66
2023/01/21 00:10:54;;;;;;;3.15;0.88;;;;;;;;;;4960070;28;20859;-67
2023/01/21 00:13:20;;;;;;;5.55;0.70;;;;;;;;;;4950270;28;20066;-66
2023/01/21 00:15:47;;;;;;;2.97;0.68;;;;;;;;;;4966896;28;20691;-67
2023/01/21 00:18:14;;;;;;;6.60;0.70;;;;;;;;;;4968375;28;20042;-66
2023/01/21 00:20:41;;;;;;;2.05;0.60;;;;;;;;;;4967263;28;20162;-66
2023/01/21 00:23:09;;;;;;;3.63;0.90;;;;;;;;;;4968580;28;20030;-66
2023/01/21 00:25:36;;;;;;;4.72;0.80;;;;;;;;;;4975976;28;20422;-67
2023/01/21 00:28:02;;;;;;;4.22;0.75;;;;;;;;;;5013224;28;20034;-66
2023/01/21 00:30:29;;;;;;;4.78;0.82;;;;;;;;;;4998290;28;20050;-68
2023/01/21 00:32:56;;;;;;;2.38;0.70;;;;;;;;;;4995196;28;20080;-66
2023/01/21 00:35:23;;;;;;;9.70;1.27;;;;;;;;;;4998005;28;20728;-67
2023/01/21 00:37:51;;;;;;;6.32;1.25;;;;;;;;;;4999610;28;20093;-65
2023/01/21 00:40:17;;;;;;;7.25;1.27;;;;;;;;;;5014988;28;20048;-68
2023/01/21 00:42:44;;;;;;;2.17;0.65;;;;;;;;;;4978435;28;20047;-66
2023/01/21 00:45:11;;;;;;;2.33;0.60;;;;;;;;;;4977166;28;20054;-68
2023/01/21 00:47:37;;;;;;;2.25;0.60;;;;;;;;;;4978234;28;20046;-67
2023/01/21 00:50:04;;;;;;;5.35;0.85;;;;;;;;;;4981635;28;20066;-67
2023/01/21 00:52:31;;;;;;;5.13;0.82;;;;;;;;;;4978731;28;20049;-65
2023/01/21 00:54:59;;;;;;;4.65;1.00;;;;;;;;;;4977202;28;20093;-66
2023/01/21 00:57:26;;;;;;;9.65;1.30;;;;;;;;;;4983689;28;20038;-67
2023/01/21 00:59:52;;;;;;;40.33;11.45;;;;;;;;;;4980085;28;20050;-66
2023/01/21 01:02:19;;;;;;;24.25;7.43;;;;;;;;;;4992706;28;20038;-67
2023/01/21 01:04:46;;;;;;;11.90;2.85;;;;;;;;;;4978416;28;20049;-67
2023/01/21 01:07:12;;;;;;;7.82;1.73;;;;;;;;;;4979061;28;20133;-68
2023/01/21 01:09:59;;;;;;;2.70;0.85;;;;;;;;;;5015464;28;20052;-67
2023/01/21 01:12:25;;;;;;;2.90;0.80;;;;;;;;;;5015149;28;20357;-66
2023/01/21 01:14:52;;;;;;;9.98;0.93;;;;;;;;;;5016402;28;20073;-66
2023/01/21 01:17:18;;;;;;;4.30;0.90;;;;;;;;;;5015033;28;20573;-68
2023/01/21 01:19:45;;;;;;;1.85;0.70;;;;;;;;;;5007272;28;20098;-67
2023/01/21 01:22:12;;;;;;;2.03;0.63;;;;;;;;;;5015288;28;20034;-67
2023/01/21 01:24:39;;;;;;;2.63;0.88;;;;;;;;;;5013665;28;20076;-66
2023/01/21 01:27:05;;;;;;;2.50;0.73;;;;;;;;;;4990151;28;20085;-66
2023/01/21 01:29:32;;;;;;;2.60;0.80;;;;;;;;;;5005852;28;20133;-66
2023/01/21 01:31:58;;;;;;;3.40;0.65;;;;;;;;;;5015432;28;20037;-65
2023/01/21 01:34:25;;;;;;;3.13;1.00;;;;;;;;;;5014941;28;22062;-66
2023/01/21 01:36:52;;;;;;;4.25;0.80;;;;;;;;;;5015921;28;20821;-68
2023/01/21 01:39:18;;;;;;;3.83;0.98;;;;;;;;;;5013576;28;20037;-66
2023/01/21 01:41:45;;;;;;;5.20;0.70;;;;;;;;;;4995103;28;20047;-66
2023/01/21 01:44:30;;;;;;;2.78;0.68;;;;;;;;;;4977514;28;20093;-67
2023/01/21 01:47:01;;;;;;;3.78;0.63;;;;;;;;;;4990151;28;20046;-67
2023/01/21 01:49:27;;;;;;;3.50;0.70;;;;;;;;;;4996340;28;20046;-66
2023/01/21 01:51:56;;;;;;;4.93;0.65;;;;;;;;;;4996387;28;20041;-67
2023/01/21 01:54:30;;;;;;;2.38;0.70;;;;;;;;;;4996378;28;20076;-68
2023/01/21 01:56:58;;;;;;;5.10;0.70;;;;;;;;;;4995599;28;20120;-67
2023/01/21 01:59:25;;;;;;;1.63;0.60;;;;;;;;;;4971619;28;20046;-66
2023/01/21 02:01:52;;;;;;;3.63;0.52;;;;;;;;;;4977116;28;20042;-66
2023/01/21 02:04:23;;;;;;;1.73;0.50;;;;;;;;;;4995490;28;20033;-67
2023/01/21 02:06:50;;;;;;;1.77;0.68;;;;;;;;;;5006916;28;20662;-67
2023/01/21 02:09:17;;;;;;;1.88;0.60;;;;;;;;;;5007874;28;20072;-65
2023/01/21 02:11:44;;;;;;;3.33;0.80;;;;;;;;;;5003701;28;20037;-67
2023/01/21 02:14:10;;;;;;;1.65;0.50;;;;;;;;;;5013384;28;20152;-69
2023/01/21 02:17:03;;;;;;;3.35;0.57;;;;;;;;;;5012276;28;20478;-68
2023/01/21 02:19:35;;;;;;;4.30;0.75;;;;;;;;;;5011555;28;20189;-67
2023/01/21 02:22:07;;;;;;;3.57;0.80;;;;;;;;;;5012596;28;20083;-66
2023/01/21 02:24:34;;;;;;;2.90;0.60;;;;;;;;;;5011154;28;20042;-66
2023/01/21 02:27:00;;;;;;;2.60;0.65;;;;;;;;;;5013319;28;20850;-68
2023/01/21 02:29:53;;;;;;;2.92;0.80;;;;;;;;;;5013292;28;20044;-66
2023/01/21 02:32:33;;;;;;;3.75;0.90;;;;;;;;;;4972028;28;20034;-67
2023/01/21 02:35:24;;;;;;;3.78;0.75;;;;;;;;;;4992458;28;20046;-67
2023/01/21 02:37:53;;;;;;;2.60;0.68;;;;;;;;;;5011929;28;20033;-66
2023/01/21 02:40:20;;;;;;;4.45;1.05;;;;;;;;;;5004511;28;20487;-66
2023/01/21 02:43:22;;;;;;;5.28;1.80;;;;;;;;;;4996231;28;20042;-67
2023/01/21 02:45:55;;;;;;;5.22;1.50;;;;;;;;;;4973262;28;20038;-69
2023/01/21 02:48:24;;;;;;;6.45;1.00;;;;;;;;;;4976633;28;20042;-68
2023/01/21 02:50:53;;;;;;;2.53;0.80;;;;;;;;;;4996605;28;20068;-67
2023/01/21 02:53:27;;;;;;;3.42;0.98;;;;;;;;;;4994976;28;20478;-67
2023/01/21 02:55:55;;;;;;;3.40;1.00;;;;;;;;;;4996485;28;20045;-68
2023/01/21 02:58:25;;;;;;;2.47;0.70;;;;;;;;;;5010426;28;20033;-67
2023/01/21 03:01:01;;;;;;;5.07;1.02;;;;;;;;;;4996434;28;21016;-67
2023/01/21 03:03:43;;;;;;;2.58;0.80;;;;;;;;;;4994565;28;20038;-66
2023/01/21 03:06:12;;;;;;;1.80;0.60;;;;;;;;;;5009296;28;20038;-67
2023/01/21 03:08:41;;;;;;;2.00;0.70;;;;;;;;;;4995720;28;20514;-66
2023/01/21 03:11:19;;;;;;;1.90;0.50;;;;;;;;;;4995679;28;20192;-66
2023/01/21 03:17:01;;;;;;;2.58;0.70;;;;;;;;;;4962488;28;20034;-67
2023/01/21 03:19:28;;;;;;;2.85;0.60;;;;;;;;;;4959812;28;20103;-66
2023/01/21 03:21:56;;;;;;;1.80;0.60;;;;;;;;;;4960001;28;20039;-66
2023/01/21 03:24:43;;;;;;;2.08;0.50;;;;;;;;;;4939667;28;20046;-66
2023/01/21 03:27:11;;;;;;;1.08;0.45;;;;;;;;;;4939815;28;20042;-67
2023/01/21 03:29:41;;;;;;;1.88;0.50;;;;;;;;;;4989762;28;20052;-67
2023/01/21 03:32:10;;;;;;;3.92;0.82;;;;;;;;;;4972771;28;20123;-67
2023/01/21 03:34:40;;;;;;;5.75;0.70;;;;;;;;;;4970912;28;21948;-68
2023/01/21 03:37:09;;;;;;;1.85;0.50;;;;;;;;;;4952529;28;20042;-67
2023/01/21 03:39:48;;;;;;;1.73;0.50;;;;;;;;;;4971919;28;20050;-67
2023/01/21 03:42:15;;;;;;;3.60;0.75;;;;;;;;;;4973099;28;20981;-66
2023/01/21 03:44:42;;;;;;;3.10;0.75;;;;;;;;;;4971230;28;20158;-67
2023/01/21 03:47:11;;;;;;;2.80;0.80;;;;;;;;;;4972113;28;20133;-67
2023/01/21 03:49:43;;;;;;;1.65;0.55;;;;;;;;;;4963124;28;20890;-67
2023/01/21 03:52:11;;;;;;;2.83;0.70;;;;;;;;;;4972898;28;20458;-67
2023/01/21 03:54:38;;;;;;;2.70;0.70;;;;;;;;;;4971455;28;20388;-68
2023/01/21 03:57:05;;;;;;;1.83;0.60;;;;;;;;;;4972854;28;20062;-68
2023/01/21 03:59:31;;;;;;;2.65;0.70;;;;;;;;;;4972766;28;20058;-68
2023/01/21 04:01:58;;;;;;;2.50;0.60;;;;;;;;;;4983532;28;20041;-67
2023/01/21 04:04:24;;;;;;;1.70;0.60;;;;;;;;;;4996239;28;20073;-67
2023/01/21 04:06:51;;;;;;;2.13;0.60;;;;;;;;;;4997084;28;20034;-68
2023/01/21 04:09:18;;;;;;;1.45;0.50;;;;;;;;;;4995915;28;20042;-67
2023/01/21 04:11:44;;;;;;;1.92;0.60;;;;;;;;;;4995000;28;20080;-66
2023/01/21 04:14:11;;;;;;;1.50;0.50;;;;;;;;;;4995568;28;20371;-66
2023/01/21 04:16:38;;;;;;;3.63;0.50;;;;;;;;;;5010917;28;20042;-65
2023/01/21 04:19:04;;;;;;;1.88;0.65;;;;;;;;;;4995333;28;20038;-65
2023/01/21 04:21:31;;;;;;;4.55;0.77;;;;;;;;;;4995622;28;20630;-68
2023/01/21 04:23:58;;;;;;;2.13;0.50;;;;;;;;;;4996115;28;20065;-67
2023/01/21 04:26:24;;;;;;;2.03;0.50;;;;;;;;;;4996225;28;20033;-67
2023/01/21 04:28:51;;;;;;;3.63;0.85;;;;;;;;;;4996085;28;22237;-65
2023/01/21 04:31:18;;;;;;;2.22;0.60;;;;;;;;;;4997472;28;20053;-65
2023/01/21 04:33:44;;;;;;;4.95;0.70;;;;;;;;;;4997141;28;20034;-66
2023/01/21 04:36:12;;;;;;;6.90;0.90;;;;;;;;;;5011707;28;20824;-67
2023/01/21 04:38:39;;;;;;;3.33;0.80;;;;;;;;;;4995327;28;20038;-67
2023/01/21 04:41:05;;;;;;;2.40;0.60;;;;;;;;;;4995228;28;20065;-67
2023/01/21 04:43:32;;;;;;;2.15;0.50;;;;;;;;;;4994848;28;20045;-66
2023/01/21 04:45:58;;;;;;;1.23;0.47;;;;;;;;;;4995913;28;20144;-67
2023/01/21 04:48:25;;;;;;;1.60;0.60;;;;;;;;;;4997161;28;20762;-66
2023/01/21 04:50:52;;;;;;;1.42;0.50;;;;;;;;;;4998071;28;20143;-66
2023/01/21 04:53:18;;;;;;;4.05;0.70;;;;;;;;;;4998687;28;20246;-67
2023/01/21 04:55:45;;;;;;;3.10;0.70;;;;;;;;;;4997899;28;20206;-66
2023/01/21 04:58:12;;;;;;;4.68;0.80;;;;;;;;;;4998871;28;20041;-66
2023/01/21 05:00:38;;;;;;;2.60;0.60;;;;;;;;;;4997631;28;20165;-66
2023/01/21 05:03:05;;;;;;;2.60;0.80;;;;;;;;;;4998042;28;20042;-66
2023/01/21 05:05:31;;;;;;;3.58;0.70;;;;;;;;;;4997630;28;20153;-66
2023/01/21 05:07:58;;;;;;;3.20;0.90;;;;;;;;;;5013812;28;20085;-68
2023/01/21 05:10:25;;;;;;;2.60;0.60;;;;;;;;;;4996649;28;20069;-66
2023/01/21 05:12:51;;;;;;;3.25;0.60;;;;;;;;;;5012136;28;20049;-67
2023/01/21 05:15:18;;;;;;;3.95;0.57;;;;;;;;;;4996952;28;20049;-66
2023/01/21 05:17:45;;;;;;;5.03;0.70;;;;;;;;;;4997171;28;20054;-67
2023/01/21 05:20:12;;;;;;;3.70;1.00;;;;;;;;;;4998349;28;20678;-67
2023/01/21 05:22:39;;;;;;;3.75;0.70;;;;;;;;;;4997505;28;20056;-67
2023/01/21 05:25:05;;;;;;;8.63;0.80;;;;;;;;;;4997342;28;20092;-68
2023/01/21 05:27:32;;;;;;;4.13;0.70;;;;;;;;;;4997479;28;20042;-67
2023/01/21 05:29:59;;;;;;;3.13;0.77;;;;;;;;;;4997849;28;20044;-68
2023/01/21 05:32:25;;;;;;;8.23;0.88;;;;;;;;;;4996520;28;20076;-67
2023/01/21 05:34:55;;;;;;;1.90;0.60;;;;;;;;;;4997125;28;20414;-67
2023/01/21 05:37:21;;;;;;;3.95;0.60;;;;;;;;;;5012257;28;20505;-66
2023/01/21 05:39:48;;;;;;;5.38;0.77;;;;;;;;;;4997700;28;20191;-66
2023/01/21 05:42:15;;;;;;;2.55;0.80;;;;;;;;;;4997670;28;20040;-69
2023/01/21 05:44:41;;;;;;;3.33;0.80;;;;;;;;;;4996979;28;20092;-68
2023/01/21 05:47:08;;;;;;;2.05;0.60;;;;;;;;;;4998292;28;20056;-69
2023/01/21 05:49:35;;;;;;;5.68;0.60;;;;;;;;;;4997467;28;20077;-69
2023/01/21 05:52:01;;;;;;;4.80;0.70;;;;;;;;;;5001326;28;20143;-69
2023/01/21 05:54:28;;;;;;;5.47;0.60;;;;;;;;;;4997006;28;20598;-68
2023/01/21 05:56:55;;;;;;;5.65;0.70;;;;;;;;;;4998956;28;20060;-65
2023/01/21 05:59:21;;;;;;;2.55;0.80;;;;;;;;;;4996502;28;20037;-66
2023/01/21 06:01:48;;;;;;;4.35;0.70;;;;;;;;;;4998692;28;20046;-67
2023/01/21 06:04:15;;;;;;;2.40;0.77;;;;;;;;;;5010751;28;20038;-68
2023/01/21 06:06:41;;;;;;;3.50;0.75;;;;;;;;;;4997437;28;20042;-67
2023/01/21 06:09:08;;;;;;;1.88;0.65;;;;;;;;;;4997411;28;20042;-66
2023/01/21 06:11:35;;;;;;;1.73;0.57;;;;;;;;;;5012257;28;20042;-67
2023/01/21 06:14:01;;;;;;;4.40;0.85;;;;;;;;;;4996328;28;20038;-66
2023/01/21 06:16:28;;;;;;;3.67;0.70;;;;;;;;;;4996953;28;20042;-66
2023/01/21 06:18:54;;;;;;;1.98;0.50;;;;;;;;;;5013287;28;20398;-66
2023/01/21 06:21:21;;;;;;;3.05;0.75;;;;;;;;;;4997531;28;20042;-67
2023/01/21 06:23:48;;;;;;;2.90;0.70;;;;;;;;;;4997337;28;20107;-67
2023/01/21 06:26:14;;;;;;;2.20;0.68;;;;;;;;;;4999061;28;20145;-66
2023/01/21 06:28:41;;;;;;;3.80;0.70;;;;;;;;;;4996123;28;20494;-66
2023/01/21 06:31:07;;;;;;;3.03;0.70;;;;;;;;;;4993603;28;20049;-66
2023/01/21 06:33:34;;;;;;;2.15;0.70;;;;;;;;;;4997086;28;20034;-65
2023/01/21 06:36:01;;;;;;;2.08;0.60;;;;;;;;;;4996469;28;20147;-65
2023/01/21 06:38:27;;;;;;;2.15;0.70;;;;;;;;;;4996763;28;20045;-66
2023/01/21 06:40:54;;;;;;;2.90;0.60;;;;;;;;;;4997184;28;20138;-66
2023/01/21 06:43:21;;;;;;;1.98;0.60;;;;;;;;;;4995945;28;20100;-66
2023/01/21 06:45:47;;;;;;;1.65;0.50;;;;;;;;;;4997498;28;20056;-66
2023/01/21 06:48:14;;;;;;;6.18;0.65;;;;;;;;;;4998564;28;20124;-66
2023/01/21 06:50:40;;;;;;;2.30;0.52;;;;;;;;;;5010482;28;20257;-67
2023/01/21 06:53:07;;;;;;;2.22;0.50;;;;;;;;;;4996268;28;20538;-68
2023/01/21 06:55:34;;;;;;;1.48;0.40;;;;;;;;;;4998049;28;20077;-67
2023/01/21 06:58:00;;;;;;;3.72;0.68;;;;;;;;;;4997046;28;20819;-68
2023/01/21 07:00:27;;;;;;;6.25;0.80;;;;;;;;;;4997119;28;20050;-67
2023/01/21 07:02:57;;;;;;;1.77;0.50;;;;;;;;;;4996240;28;20045;-67
2023/01/21 07:05:24;;;;;;;2.10;0.60;;;;;;;;;;4996250;28;20038;-67
2023/01/21 07:07:54;;;;;;;1.48;0.50;;;;;;;;;;4996820;28;20042;-67
2023/01/21 07:10:21;;;;;;;2.95;0.75;;;;;;;;;;4996329;28;20042;-68
2023/01/21 07:12:47;;;;;;;4.28;0.60;;;;;;;;;;5012073;28;20042;-67
2023/01/21 07:15:14;;;;;;;1.92;0.60;;;;;;;;;;4997557;28;20046;-68
2023/01/21 07:17:41;;;;;;;2.70;0.50;;;;;;;;;;4996339;28;20056;-67
2023/01/21 07:20:11;;;;;;;1.77;0.57;;;;;;;;;;4997604;28;20049;-68
2023/01/21 07:22:38;;;;;;;1.55;0.50;;;;;;;;;;4996933;28;20049;-68
2023/01/21 07:25:05;;;;;;;1.77;0.50;;;;;;;;;;4996552;28;20044;-68
2023/01/21 07:27:32;;;;;;;3.92;0.60;;;;;;;;;;5011753;28;20072;-67
2023/01/21 07:29:58;;;;;;;0.98;0.40;;;;;;;;;;4997290;28;20176;-68
2023/01/21 07:32:25;;;;;;;0.70;0.40;;;;;;;;;;5011616;28;20537;-67
2023/01/21 07:34:51;;;;;;;2.08;0.60;;;;;;;;;;5012395;28;20411;-68
2023/01/21 07:37:18;;;;;;;1.40;0.50;;;;;;;;;;4995966;28;20192;-69
2023/01/21 07:39:45;;;;;;;0.90;0.40;;;;;;;;;;4995673;28;20164;-67
2023/01/21 07:42:11;;;;;;;2.58;0.60;;;;;;;;;;5001363;28;20124;-67
2023/01/21 07:44:38;;;;;;;1.80;0.50;;;;;;;;;;4998683;28;22662;-68
2023/01/21 07:47:05;;;;;;;3.67;0.55;;;;;;;;;;5011836;28;20383;-68
2023/01/21 07:49:31;;;;;;;1.80;0.52;;;;;;;;;;4995780;28;20037;-67
2023/01/21 07:51:58;;;;;;;1.00;0.40;;;;;;;;;;4990914;28;20212;-69
2023/01/21 07:54:24;;;;;;;1.42;0.32;;;;;;;;;;5010829;28;20034;-66
2023/01/21 07:56:51;;;;;;;1.33;0.50;;;;;;;;;;4995882;28;20395;-66
2023/01/21 07:59:18;;;;;;;3.17;0.50;;;;;;;;;;4996043;28;20034;-68
2023/01/21 08:01:44;;;;;;;2.03;0.50;;;;;;;;;;4994966;28;20230;-65
2023/01/21 08:04:11;;;;;;;2.38;0.50;;;;;;;;;;4996332;28;20042;-68
2023/01/21 08:06:40;;;;;;;1.85;0.50;;;;;;;;;;4995992;28;20042;-68
2023/01/21 08:09:07;;;;;;;1.00;0.40;;;;;;;;;;4997110;28;20038;-65
2023/01/21 08:11:33;;;;;;;2.17;0.43;;;;;;;;;;5012438;28;20048;-64
2023/01/21 08:14:01;;;;;;;0.85;0.40;;;;;;;;;;4996861;28;20045;-65
2023/01/21 08:16:28;;;;;;;2.88;0.60;;;;;;;;;;5015666;28;20042;-66
2023/01/21 08:18:55;;;;;;;1.63;0.55;;;;;;;;;;5001381;28;20041;-64
2023/01/21 08:21:21;;;;;;;2.42;0.60;;;;;;;;;;5001803;28;20038;-65
2023/01/21 08:23:48;;;;;;;1.70;0.50;;;;;;;;;;5004763;28;20913;-66
2023/01/21 08:26:14;;;;;;;1.95;0.40;;;;;;;;;;5021346;28;20573;-65
2023/01/21 08:28:42;;;;;;;1.45;0.40;;;;;;;;;;5014615;28;20087;-66
2023/01/21 08:31:11;;;;;;;3.03;0.50;;;;;;;;;;5000928;28;20045;-67
2023/01/21 08:33:38;;;;;;;2.45;0.60;;;;;;;;;;5013155;28;20448;-68
2023/01/21 08:36:06;;;;;;;2.53;0.50;;;;;;;;;;4998884;28;20045;-66
2023/01/21 08:38:33;;;;;;;2.10;0.50;;;;;;;;;;4999086;28;20033;-68
2023/01/21 08:41:00;;;;;;;1.38;0.40;;;;;;;;;;4998410;28;20096;-67
2023/01/21 08:43:27;;;;;;;2.38;0.80;;;;;;;;;;4997579;28;20608;-67
2023/01/21 08:45:58;;;;;;;2.05;0.63;;;;;;;;;;4999185;28;20072;-68
2023/01/21 08:48:24;;;;;;;1.98;0.52;;;;;;;;;;4997265;28;20447;-68
2023/01/21 08:50:51;;;;;;;2.20;0.50;;;;;;;;;;4999133;28;20050;-68
2023/01/21 08:53:18;;;;;;;1.15;0.50;;;;;;;;;;4998347;28;20042;-69
2023/01/21 08:55:46;;;;;;;2.05;0.60;;;;;;;;;;4998339;28;20046;-67
2023/01/21 08:58:12;;;;;;;1.13;0.40;;;;;;;;;;4997873;28;20145;-67
2023/01/21 09:00:40;;;;;;;1.60;0.50;;;;;;;;;;4997605;28;20074;-67
2023/01/21 09:03:08;;;;;;;3.00;0.50;;;;;;;;;;5015821;28;20045;-68
2023/01/21 09:05:35;;;;;;;1.95;0.50;;;;;;;;;;4998354;28;20112;-66
2023/01/21 09:08:01;;;;;;;1.02;0.40;;;;;;;;;;4998471;28;20100;-67
2023/01/21 09:13:15;;;;;;;1.85;0.50;;;;;;;;;;4999595;28;20049;-68
2023/01/21 09:15:42;;;;;;;1.55;0.38;;;;;;;;;;5012738;28;20041;-65
2023/01/21 09:18:09;;;;;;;0.60;0.32;;;;;;;;;;4993779;28;20044;-69
2023/01/21 09:20:36;;;;;;;1.63;0.43;;;;;;;;;;4997629;28;20060;-67
2023/01/21 09:23:22;;;;;;;1.48;0.50;;;;;;;;;;5010863;28;20064;-67
2023/01/21 09:25:50;;;;;;;1.42;0.50;;;;;;;;;;4996550;28;20537;-66
2023/01/21 09:28:17;;;;;;;1.95;0.47;;;;;;;;;;4998002;28;20045;-67
2023/01/21 09:30:44;;;;;;;0.75;0.40;;;;;;;;;;4997838;28;20046;-67
2023/01/21 09:33:11;;;;;;;1.52;0.45;;;;;;;;;;4996509;28;20037;-68
2023/01/21 09:35:37;;;;;;;2.25;0.55;;;;;;;;;;4997779;28;20053;-67
2023/01/21 09:38:04;;;;;;;1.00;0.40;;;;;;;;;;4998224;28;20442;-67
2023/01/21 09:40:31;;;;;;;0.63;0.30;;;;;;;;;;4997111;28;20041;-67
2023/01/21 09:42:59;;;;;;;1.27;0.60;;;;;;;;;;4998009;28;20533;-67
2023/01/21 09:45:26;;;;;;;0.90;0.40;;;;;;;;;;4996760;28;20050;-67
2023/01/21 09:47:54;;;;;;;2.42;0.50;;;;;;;;;;4998683;28;20049;-67
2023/01/21 09:50:22;;;;;;;1.33;0.43;;;;;;;;;;4997028;28;20510;-67
2023/01/21 09:52:50;;;;;;;1.85;0.50;;;;;;;;;;4996363;28;20938;-67
2023/01/21 09:55:17;;;;;;;1.38;0.60;;;;;;;;;;4997544;28;20144;-67
2023/01/21 09:58:02;;;;;;;0.80;0.40;;;;;;;;;;4997146;28;20071;-67
2023/01/21 10:00:31;;;;;;;1.25;0.50;;;;;;;;;;4997116;28;20414;-67
2023/01/21 10:03:09;;;;;;;3.50;0.40;;;;;;;;;;4997200;28;20075;-67
2023/01/21 10:05:54;;;;;;;1.42;0.47;;;;;;;;;;4997124;28;20042;-67
2023/01/21 10:08:39;;;;;;;1.20;0.47;;;;;;;;;;5009600;28;20037;-66
2023/01/21 10:11:25;;;;;;;0.98;0.45;;;;;;;;;;4997694;28;20050;-68
2023/01/21 10:13:55;;;;;;;1.67;0.50;;;;;;;;;;4996187;28;20422;-66
2023/01/21 10:16:40;;;;;;;1.45;0.40;;;;;;;;;;4996687;28;20124;-68
2023/01/21 10:19:10;;;;;;;1.20;0.40;;;;;;;;;;4997800;28;20706;-68
2023/01/21 10:21:41;;;;;;;2.47;0.50;;;;;;;;;;4996858;28;20077;-67
2023/01/21 10:24:18;;;;;;;0.85;0.40;;;;;;;;;;5011995;28;20046;-68
2023/01/21 10:26:47;;;;;;;1.33;0.40;;;;;;;;;;4996342;28;20072;-67
2023/01/21 10:29:17;;;;;;;1.52;0.43;;;;;;;;;;4997240;28;20042;-67
2023/01/21 10:31:46;;;;;;;1.45;0.50;;;;;;;;;;4996606;28;20049;-67
2023/01/21 10:34:20;;;;;;;2.03;0.47;;;;;;;;;;4996255;28;20521;-67
2023/01/21 10:36:52;;;;;;;1.13;0.40;;;;;;;;;;4996621;28;20045;-67
2023/01/21 10:39:37;;;;;;;5.70;0.50;;;;;;;;;;5011858;28;20038;-68
2023/01/21 10:42:22;;;;;;;1.45;0.45;;;;;;;;;;4997043;28;20045;-67
2023/01/21 10:45:04;;;;;;;1.08;0.40;;;;;;;;;;5010488;28;20034;-67
2023/01/21 10:47:31;;;;;;;1.63;0.50;;;;;;;;;;4996250;28;20628;-67
2023/01/21 10:50:03;;;;;;;2.10;0.50;;;;;;;;;;5011537;28;20454;-67
2023/01/21 10:52:49;;;;;;;2.80;0.73;;;;;;;;;;4995710;28;20034;-67
2023/01/21 10:55:30;;;;;;;3.45;0.60;;;;;;;;;;4997541;28;20192;-68
2023/01/21 10:58:10;;;;;;;1.35;0.55;;;;;;;;;;4996202;28;20033;-67
2023/01/21 11:00:43;;;;;;;0.80;0.40;;;;;;;;;;4996722;28;20384;-66
2023/01/21 11:03:30;;;;;;;1.60;0.47;;;;;;;;;;4997080;28;20049;-67
2023/01/21 11:05:58;;;;;;;1.60;0.50;;;;;;;;;;4995714;28;20050;-67
2023/01/21 11:08:26;;;;;;;1.77;0.52;;;;;;;;;;4996707;28;20153;-66
2023/01/21 11:10:56;;;;;;;2.42;0.60;;;;;;;;;;4997414;28;20046;-67
2023/01/21 11:13:23;;;;;;;2.03;0.50;;;;;;;;;;4994333;28;20046;-68
2023/01/21 11:15:52;;;;;;;1.42;0.50;;;;;;;;;;4995694;28;20379;-67
2023/01/21 11:18:45;;;;;;;1.45;0.45;;;;;;;;;;4995829;28;20499;-71
2023/01/21 11:21:14;;;;;;;1.50;0.50;;;;;;;;;;4994758;28;21750;-66
2023/01/21 11:23:41;;;;;;;3.45;0.60;;;;;;;;;;4995391;28;20494;-67
2023/01/21 11:26:16;;;;;;;1.42;0.40;;;;;;;;;;4996827;28;20074;-67
2023/01/21 11:28:44;;;;;;;1.60;0.60;;;;;;;;;;4995593;28;20042;-68
2023/01/21 11:31:11;;;;;;;3.00;0.50;;;;;;;;;;4994663;28;20049;-67
2023/01/21 11:33:38;;;;;;;3.05;0.50;;;;;;;;;;5010513;28;20053;-66
2023/01/21 11:36:18;;;;;;;1.67;0.50;;;;;;;;;;4996854;28;20038;-66
2023/01/21 11:38:46;;;;;;;2.15;0.50;;;;;;;;;;4995634;28;20037;-67
2023/01/21 11:41:12;;;;;;;1.65;0.52;;;;;;;;;;4995237;28;20530;-67
2023/01/21 11:43:44;;;;;;;2.85;0.63;;;;;;;;;;4994947;28;21051;-67
2023/01/21 11:46:26;;;;;;;3.80;0.50;;;;;;;;;;4996654;28;20046;-66
2023/01/21 11:48:57;;;;;;;1.55;0.47;;;;;;;;;;4995429;28;20037;-66
2023/01/21 11:51:24;;;;;;;3.75;0.50;;;;;;;;;;4995630;28;20411;-67
2023/01/21 11:54:06;;;;;;;1.15;0.40;;;;;;;;;;4995753;28;20116;-68
2023/01/21 11:56:32;;;;;;;1.23;0.40;;;;;;;;;;4996520;28;20044;-67
2023/01/21 11:58:59;;;;;;;1.85;0.52;;;;;;;;;;5000828;28;20038;-67
2023/01/21 12:01:26;;;;;;;1.17;0.40;;;;;;;;;;4999539;28;20053;-67
2023/01/21 12:03:54;;;;;;;0.73;0.40;;;;;;;;;;5000491;28;20048;-68
2023/01/21 12:06:22;;;;;;;1.98;0.50;;;;;;;;;;5000809;28;20112;-67
2023/01/21 12:08:49;;;;;;;1.63;0.50;;;;;;;;;;5001280;28;20034;-67
2023/01/21 12:11:21;;;;;;;1.05;0.40;;;;;;;;;;5001349;28;20070;-67
2023/01/21 12:13:59;;;;;;;1.70;0.50;;;;;;;;;;5000977;28;20612;-68
2023/01/21 12:16:28;;;;;;;0.88;0.43;;;;;;;;;;4999118;28;20042;-68
2023/01/21 12:19:07;;;;;;;2.33;0.50;;;;;;;;;;4999434;28;20062;-68
2023/01/21 12:21:33;;;;;;;2.30;0.60;;;;;;;;;;4998822;28;20050;-67
2023/01/21 12:24:20;;;;;;;4.07;0.60;;;;;;;;;;4998969;28;20077;-67
2023/01/21 12:26:50;;;;;;;1.73;0.50;;;;;;;;;;5013715;28;20953;-67
2023/01/21 12:29:17;;;;;;;1.35;0.60;;;;;;;;;;4999444;28;20204;-69
2023/01/21 12:32:04;;;;;;;1.80;0.60;;;;;;;;;;5004603;28;20064;-66
2023/01/21 12:34:38;;;;;;;1.38;0.45;;;;;;;;;;4998434;28;20038;-67
2023/01/21 12:37:11;;;;;;;1.42;0.50;;;;;;;;;;5000176;28;20398;-66
2023/01/21 12:39:38;;;;;;;1.02;0.40;;;;;;;;;;4998200;28;20049;-67
2023/01/21 12:42:10;;;;;;;1.42;0.40;;;;;;;;;;4998565;28;20095;-66
2023/01/21 12:44:37;;;;;;;1.87;0.50;;;;;;;;;;4998480;28;20105;-67
2023/01/21 12:47:08;;;;;;;1.48;0.50;;;;;;;;;;4999386;28;20049;-66
2023/01/21 12:49:49;;;;;;;2.40;0.60;;;;;;;;;;4998218;28;20142;-66
2023/01/21 12:52:26;;;;;;;1.65;0.60;;;;;;;;;;4999094;28;20030;-67
2023/01/21 12:54:58;;;;;;;2.20;0.60;;;;;;;;;;4999321;28;20112;-66
2023/01/21 12:57:37;;;;;;;2.13;0.65;;;;;;;;;;4995741;28;20041;-66
2023/01/21 13:00:03;;;;;;;1.92;0.63;;;;;;;;;;4996755;28;20044;-66
2023/01/21 13:02:56;;;;;;;1.40;0.43;;;;;;;;;;4998273;28;20498;-67
2023/01/21 13:05:42;;;;;;;1.17;0.40;;;;;;;;;;4991788;28;20038;-68
2023/01/21 13:08:08;;;;;;;1.85;0.60;;;;;;;;;;4992639;28;20340;-66
2023/01/21 13:10:44;;;;;;;1.73;0.50;;;;;;;;;;4997646;28;20042;-67
2023/01/21 13:13:19;;;;;;;2.42;0.50;;;;;;;;;;4998598;28;20096;-66
2023/01/21 13:15:49;;;;;;;2.67;0.60;;;;;;;;;;4996962;28;20030;-67
2023/01/21 13:18:18;;;;;;;1.30;0.43;;;;;;;;;;5013883;28;20125;-66
2023/01/21 13:20:53;;;;;;;1.98;0.55;;;;;;;;;;5006658;28;20043;-67
2023/01/21 13:23:28;;;;;;;2.33;0.52;;;;;;;;;;5005944;28;20394;-67
2023/01/21 13:25:59;;;;;;;2.17;0.60;;;;;;;;;;4991238;28;20613;-68
2023/01/21 13:28:32;;;;;;;2.25;0.63;;;;;;;;;;4989294;28;20091;-68
2023/01/21 13:31:06;;;;;;;1.37;0.43;;;;;;;;;;4990869;28;20049;-69
2023/01/21 13:33:48;;;;;;;2.50;0.70;;;;;;;;;;4981453;28;20046;-69
2023/01/21 13:36:15;;;;;;;2.03;0.65;;;;;;;;;;4978486;28;20144;-68
2023/01/21 13:39:03;;;;;;;1.65;0.60;;;;;;;;;;4977653;28;20105;-69
2023/01/21 13:41:33;;;;;;;1.90;0.55;;;;;;;;;;4976041;28;20162;-67
2023/01/21 13:44:12;;;;;;;3.00;0.60;;;;;;;;;;4977970;28;20073;-68
2023/01/21 13:46:39;;;;;;;3.65;0.60;;;;;;;;;;4977179;28;20046;-68
2023/01/21 13:49:16;;;;;;;3.03;0.60;;;;;;;;;;4978457;28;20042;-69
2023/01/21 13:52:05;;;;;;;1.35;0.50;;;;;;;;;;4989765;28;20099;-68
2023/01/21 13:54:50;;;;;;;2.53;0.80;;;;;;;;;;4996848;28;20034;-69
2023/01/21 13:57:32;;;;;;;2.05;0.60;;;;;;;;;;4997615;28;20046;-67
2023/01/21 14:00:02;;;;;;;1.75;0.60;;;;;;;;;;4995918;28;20178;-67
2023/01/21 14:02:29;;;;;;;1.75;0.60;;;;;;;;;;4996451;28;20723;-67
2023/01/21 14:05:19;;;;;;;2.50;0.70;;;;;;;;;;4996486;28;20112;-66
2023/01/21 14:07:55;;;;;;;2.35;0.60;;;;;;;;;;4991898;28;20041;-65
2023/01/21 14:10:28;;;;;;;1.83;0.57;;;;;;;;;;4995248;28;20038;-66
2023/01/21 14:13:10;;;;;;;2.50;0.70;;;;;;;;;;4996948;28;20042;-66
2023/01/21 14:15:55;;;;;;;1.42;0.50;;;;;;;;;;4994902;28;20034;-68
2023/01/21 14:18:26;;;;;;;4.50;0.70;;;;;;;;;;4995255;28;20445;-67
2023/01/21 14:21:05;;;;;;;3.13;0.75;;;;;;;;;;4994687;28;20045;-67
2023/01/21 14:23:40;;;;;;;3.83;0.70;;;;;;;;;;4994903;28;20049;-67
2023/01/21 14:26:25;;;;;;;2.30;0.85;;;;;;;;;;5002180;28;20033;-66
2023/01/21 14:29:17;;;;;;;4.75;0.80;;;;;;;;;;4972604;28;20090;-67
2023/01/21 14:31:51;;;;;;;3.63;0.90;;;;;;;;;;4992514;28;20184;-67
2023/01/21 14:34:21;;;;;;;2.40;0.80;;;;;;;;;;4994054;28;20038;-66
2023/01/21 14:36:51;;;;;;;5.20;0.90;;;;;;;;;;4977748;28;20106;-67
2023/01/21 14:39:20;;;;;;;2.78;0.55;;;;;;;;;;4977121;28;20064;-67
2023/01/21 14:42:09;;;;;;;3.53;0.68;;;;;;;;;;4992038;28;20132;-67
2023/01/21 14:44:36;;;;;;;3.35;0.75;;;;;;;;;;4984763;28;20041;-68
2023/01/21 14:47:13;;;;;;;2.40;0.80;;;;;;;;;;4993868;28;20048;-67
2023/01/21 14:49:41;;;;;;;4.85;1.00;;;;;;;;;;4991660;28;20041;-69
2023/01/21 14:52:12;;;;;;;4.57;1.00;;;;;;;;;;4994080;28;20052;-67
2023/01/21 14:54:42;;;;;;;2.00;0.60;;;;;;;;;;4976594;28;20053;-71
2023/01/21 14:57:26;;;;;;;1.42;0.50;;;;;;;;;;4994273;28;20073;-67
2023/01/21 14:59:54;;;;;;;2.80;0.70;;;;;;;;;;4992589;28;20069;-68
2023/01/21 15:02:40;;;;;;;4.30;0.60;;;;;;;;;;4993353;28;20046;-68
2023/01/21 15:05:10;;;;;;;2.10;0.60;;;;;;;;;;4993952;28;20153;-68
2023/01/21 15:07:40;;;;;;;2.47;0.65;;;;;;;;;;4984131;28;20861;-67